Time;durP1;ratioP1;P1;durP2;ratioP2;P2;SDS_P1;SDS_P2;PMS_P1;PMS_P2;Temp;Humidity;BMP_temperature;BMP_pressure;BME280_temperature;BME280_humidity;BME280_pressure;Samples;Min_cycle;Max_cycle;Signal;HPM_P1;HPM_P2
2022/01/25 00:24:20;;;;;;;18.67;12.68;;;-2.70;99.90;;;;;;5055545;28;20041;-82
2022/01/25 00:27:12;;;;;;;17.00;12.65;;;-2.70;99.90;;;;;;5074088;28;20024;-82
2022/01/25 00:32:16;;;;;;;20.63;12.73;;;-2.70;99.90;;;;;;5073883;28;20394;-82
2022/01/25 00:34:42;;;;;;;18.55;12.95;;;-2.70;99.90;;;;;;5073814;28;20039;-83
2022/01/25 00:37:09;;;;;;;13.13;11.73;;;-2.70;99.90;;;;;;5073631;28;20389;-83
2022/01/25 00:39:38;;;;;;;13.27;11.88;;;-2.70;99.90;;;;;;5072972;28;20029;-82
2022/01/25 00:42:05;;;;;;;17.85;12.05;;;-2.80;99.90;;;;;;5073294;28;20040;-82
2022/01/25 00:44:36;;;;;;;16.00;12.40;;;-2.70;99.90;;;;;;5073218;28;20029;-83
2022/01/25 00:47:05;;;;;;;19.30;13.25;;;-2.70;99.90;;;;;;5073514;28;20512;-83
2022/01/25 00:49:36;;;;;;;19.20;14.07;;;-2.70;99.90;;;;;;5072959;28;20032;-82
2022/01/25 00:52:18;;;;;;;23.02;12.65;;;-2.70;99.90;;;;;;5073507;28;20401;-82
2022/01/25 00:54:45;;;;;;;14.35;12.82;;;-2.70;99.90;;;;;;5055606;28;20041;-83
2022/01/25 00:57:11;;;;;;;17.88;12.95;;;-2.80;99.90;;;;;;5073527;28;20047;-83
2022/01/25 00:59:37;;;;;;;16.20;13.80;;;-2.70;99.90;;;;;;5072972;28;20039;-83
2022/01/25 01:02:08;;;;;;;15.32;13.73;;;-2.80;99.90;;;;;;5055363;28;20063;-83
2022/01/25 01:04:34;;;;;;;15.95;13.63;;;-2.80;99.90;;;;;;5072836;28;20032;-83
2022/01/25 01:07:03;;;;;;;17.88;13.80;;;-2.80;99.90;;;;;;5055330;28;20037;-83
2022/01/25 01:09:32;;;;;;;17.90;14.77;;;-2.90;99.90;;;;;;5072640;28;20036;-83
2022/01/25 01:12:07;;;;;;;20.27;16.70;;;-2.80;99.90;;;;;;5072873;28;20477;-83
2022/01/25 01:31:05;;;;;;;17.77;13.85;;;-3.10;99.90;;;;;;5074394;28;20036;-82
2022/01/25 01:44:00;;;;;;;16.20;12.90;;;-3.10;99.90;;;;;;5072653;28;20392;-83
2022/01/25 01:48:58;;;;;;;17.67;14.63;;;-3.10;99.90;;;;;;5072331;28;20040;-83
2022/01/25 01:51:29;;;;;;;19.95;15.35;;;-3.10;99.90;;;;;;5054348;28;20044;-83
2022/01/25 01:54:00;;;;;;;;;;;-3.10;99.90;;;;;;5058856;28;20040;-83
2022/01/25 01:56:26;;;;;;;18.73;13.60;;;-3.10;99.90;;;;;;5076069;28;19916;-82
2022/01/25 01:58:55;;;;;;;23.33;17.02;;;-3.00;99.90;;;;;;5076687;28;20039;-82
2022/01/25 02:01:27;;;;;;;22.40;16.73;;;-3.00;99.90;;;;;;5076111;28;20043;-83
2022/01/25 02:03:55;;;;;;;21.20;15.93;;;-3.00;99.90;;;;;;5076827;28;20044;-82
2022/01/25 02:06:21;;;;;;;16.35;14.40;;;-3.10;99.90;;;;;;5075839;28;20457;-82
2022/01/25 02:08:48;;;;;;;24.05;19.33;;;-3.10;99.90;;;;;;5058670;28;20047;-82
2022/01/25 02:11:14;;;;;;;21.67;17.83;;;-3.10;99.90;;;;;;5058616;28;20048;-82
2022/01/25 02:13:42;;;;;;;19.33;16.25;;;-3.10;99.90;;;;;;5079358;28;20028;-81
2022/01/25 02:16:17;;;;;;;17.20;15.00;;;-3.10;99.90;;;;;;5076335;28;20033;-82
2022/01/25 02:24:13;;;;;;;15.32;13.40;;;-3.30;99.90;;;;;;5058292;28;20439;-82
2022/01/25 02:26:39;;;;;;;18.70;15.52;;;-3.20;99.90;;;;;;5077324;28;20039;-82
2022/01/25 02:29:05;;;;;;;19.05;14.98;;;-3.20;99.90;;;;;;5096855;28;20032;-82
2022/01/25 02:31:31;;;;;;;16.27;14.55;;;-3.30;99.90;;;;;;5096629;28;20035;-82
2022/01/25 02:33:58;;;;;;;17.15;14.88;;;-3.20;99.90;;;;;;5097025;28;20369;-82
2022/01/25 02:36:28;;;;;;;17.08;14.70;;;-3.20;99.90;;;;;;5095885;28;20032;-82
2022/01/25 02:38:55;;;;;;;27.60;16.45;;;-3.30;99.90;;;;;;5078438;28;20362;-82
2022/01/25 02:41:23;;;;;;;19.10;13.88;;;-3.30;99.90;;;;;;5095568;28;20043;-82
2022/01/25 02:43:51;;;;;;;20.23;15.40;;;-3.30;99.90;;;;;;5096224;28;20028;-82
2022/01/25 02:46:24;;;;;;;19.80;14.65;;;-3.30;99.90;;;;;;5095897;28;20039;-83
2022/01/25 02:49:03;;;;;;;18.15;14.98;;;-3.10;99.90;;;;;;5096005;28;20032;-83
2022/01/25 02:51:36;;;;;;;19.75;15.23;;;-3.20;99.90;;;;;;5060699;28;20052;-82
2022/01/25 02:54:04;;;;;;;21.30;16.00;;;-3.30;99.90;;;;;;5095607;28;20055;-82
2022/01/25 02:56:30;;;;;;;19.58;15.50;;;-3.20;99.90;;;;;;5095645;28;20055;-82
2022/01/25 02:58:57;;;;;;;19.10;17.08;;;-3.10;99.90;;;;;;5077598;28;20040;-83
2022/01/25 03:01:23;;;;;;;18.02;16.15;;;-3.20;99.90;;;;;;5077258;28;20055;-82
2022/01/25 03:03:50;;;;;;;23.23;17.20;;;-3.30;99.90;;;;;;5060219;28;20067;-82
2022/01/25 03:06:19;;;;;;;19.95;16.70;;;-3.30;99.90;;;;;;5100865;28;20032;-82
2022/01/25 03:08:47;;;;;;;25.70;19.45;;;-3.40;99.90;;;;;;5096462;28;20039;-81
2022/01/25 03:11:13;;;;;;;21.63;18.95;;;-3.40;99.90;;;;;;5095448;28;20051;-81
2022/01/25 03:16:22;;;;;;;27.30;20.23;;;-3.50;99.90;;;;;;5095278;28;20036;-81
2022/01/25 03:18:49;;;;;;;23.58;19.08;;;-3.50;99.90;;;;;;5094841;28;20028;-81
2022/01/25 03:23:45;;;;;;;26.13;21.00;;;-3.50;99.90;;;;;;5094303;28;20036;-81
2022/01/25 03:26:11;;;;;;;25.58;19.05;;;-3.50;99.90;;;;;;5077187;28;20051;-81
2022/01/25 03:28:37;;;;;;;26.27;20.08;;;-3.40;99.90;;;;;;5094983;28;20055;-81
2022/01/25 03:31:04;;;;;;;26.88;20.50;;;-3.40;99.90;;;;;;5095578;28;20036;-81
2022/01/25 03:33:30;;;;;;;25.98;21.13;;;-3.30;99.90;;;;;;5094739;28;20038;-81
2022/01/25 03:35:57;;;;;;;23.80;20.83;;;-3.30;99.90;;;;;;5094635;28;20051;-81
2022/01/25 03:38:23;;;;;;;28.50;20.48;;;-3.30;99.90;;;;;;5076059;28;20028;-81
2022/01/25 03:40:49;;;;;;;26.25;20.80;;;-3.40;99.90;;;;;;5094604;28;20380;-81
2022/01/25 03:43:18;;;;;;;26.88;18.45;;;-3.40;99.90;;;;;;5095277;28;20039;-81
2022/01/25 03:45:57;;;;;;;23.77;18.25;;;-3.40;99.90;;;;;;5094816;28;20043;-81
2022/01/25 03:50:52;;;;;;;23.48;20.25;;;-3.30;99.90;;;;;;5094726;28;20036;-81
2022/01/25 03:53:20;;;;;;;26.58;20.05;;;-3.40;99.90;;;;;;5094696;28;20028;-81
2022/01/25 03:55:48;;;;;;;26.05;20.65;;;-3.40;99.90;;;;;;5076198;28;20036;-81
2022/01/25 03:58:14;;;;;;;27.15;20.73;;;-3.40;99.90;;;;;;5100330;28;20048;-81
2022/01/25 04:00:42;;;;;;;26.95;21.10;;;-3.50;99.90;;;;;;5094947;28;20027;-81
2022/01/25 04:03:27;;;;;;;29.80;20.83;;;-3.50;99.90;;;;;;5095444;28;20039;-81
2022/01/25 04:05:55;;;;;;;35.42;23.30;;;-3.50;99.90;;;;;;5094889;28;20032;-80
2022/01/25 04:08:21;;;;;;;37.15;25.02;;;-3.50;99.90;;;;;;5077834;28;20035;-82
2022/01/25 04:10:48;;;;;;;33.17;24.10;;;-3.50;99.90;;;;;;5095045;28;20036;-81
2022/01/25 04:13:14;;;;;;;33.22;27.58;;;-3.50;99.90;;;;;;5096363;28;20465;-82
2022/01/25 04:15:45;;;;;;;37.88;28.80;;;-3.50;99.90;;;;;;5079698;28;20032;-81
2022/01/25 04:21:25;;;;;;;39.95;28.98;;;-3.40;99.90;;;;;;5070952;28;20067;-81
2022/01/25 04:26:36;;;;;;;36.75;28.00;;;-3.50;99.90;;;;;;5094040;28;20036;-81
2022/01/25 04:29:03;;;;;;;37.45;26.70;;;-3.50;99.90;;;;;;5096020;28;20047;-81
2022/01/25 04:31:29;;;;;;;36.00;26.73;;;-3.50;99.90;;;;;;5095592;28;20032;-80
2022/01/25 04:34:10;;;;;;;42.17;29.75;;;-3.50;99.90;;;;;;5095088;28;20031;-81
2022/01/25 04:53:10;;;;;;;33.20;26.27;;;-3.70;99.90;;;;;;5075064;28;20044;-81
2022/01/25 04:56:27;;;;;;;40.78;28.38;;;-3.70;99.90;;;;;;5074703;28;20043;-80
2022/01/25 04:58:34;;;;;;;38.08;29.02;;;-3.60;99.90;;;;;;5067152;28;20048;-81
2022/01/25 05:01:01;;;;;;;38.65;29.05;;;-3.40;99.90;;;;;;5093502;28;20035;-81
2022/01/25 05:03:41;;;;;;;37.55;29.05;;;-3.50;99.90;;;;;;5074909;28;20070;-81
2022/01/25 05:06:13;;;;;;;34.33;26.92;;;-3.60;99.90;;;;;;5093605;28;20032;-81
2022/01/25 05:08:44;;;;;;;39.83;29.73;;;-3.60;99.90;;;;;;5093092;28;20040;-82
2022/01/25 05:11:23;;;;;;;;;;;-3.60;99.90;;;;;;5093908;28;20457;-81
2022/01/25 05:14:09;;;;;;;34.00;25.42;;;-3.70;99.90;;;;;;5092548;28;19923;-81
2022/01/25 05:16:46;;;;;;;36.85;28.17;;;-3.60;99.90;;;;;;5092537;28;20388;-81
2022/01/25 05:24:34;;;;;;;42.72;32.10;;;-3.50;99.90;;;;;;5093296;28;20043;-81
2022/01/25 05:27:01;;;;;;;47.22;35.35;;;-3.40;99.90;;;;;;5073305;28;20047;-81
2022/01/25 05:29:27;;;;;;;54.45;39.13;;;-3.30;99.90;;;;;;5092622;28;20035;-79
2022/01/25 05:31:53;;;;;;;53.42;37.65;;;-3.30;99.90;;;;;;5091919;28;20032;-80
2022/01/25 05:34:19;;;;;;;71.40;46.38;;;-3.40;99.90;;;;;;5074536;28;20032;-81
2022/01/25 05:36:46;;;;;;;105.28;63.28;;;-3.30;99.90;;;;;;5092212;28;20389;-80
2022/01/25 05:39:17;;;;;;;91.53;55.47;;;-3.30;99.90;;;;;;5081121;28;20032;-80
2022/01/25 05:41:46;;;;;;;62.03;40.97;;;-3.30;99.90;;;;;;5092157;28;20032;-81
2022/01/25 05:44:59;;;;;;;57.00;40.90;;;-3.40;99.90;;;;;;5074357;28;20032;-82
2022/01/25 05:47:05;;;;;;;59.90;39.03;;;-3.40;99.90;;;;;;5064031;28;20040;-81
2022/01/25 05:49:34;;;;;;;69.25;43.13;;;-3.40;99.90;;;;;;5086464;28;20043;-81
2022/01/25 05:52:02;;;;;;;64.75;42.78;;;-3.40;99.90;;;;;;5088009;28;20036;-80
2022/01/25 05:54:29;;;;;;;67.55;37.88;;;-3.40;99.90;;;;;;5089347;28;20040;-83
2022/01/25 05:56:55;;;;;;;72.47;42.13;;;-3.40;99.90;;;;;;5070527;28;20048;-82
2022/01/25 05:59:21;;;;;;;61.03;40.40;;;-3.40;99.90;;;;;;5067774;28;20047;-83
2022/01/25 06:01:48;;;;;;;56.15;39.55;;;-3.40;99.90;;;;;;5065932;28;20482;-83
2022/01/25 06:04:15;;;;;;;70.68;44.00;;;-3.40;99.90;;;;;;5085078;28;20051;-82
2022/01/25 06:06:41;;;;;;;75.63;43.08;;;-3.40;99.90;;;;;;5086572;28;20342;-82
2022/01/25 06:09:08;;;;;;;60.60;43.22;;;-3.40;99.90;;;;;;5088574;28;20035;-83
2022/01/25 06:11:35;;;;;;;67.80;47.22;;;-3.30;99.90;;;;;;5092823;28;20039;-83
2022/01/25 06:14:01;;;;;;;70.80;50.03;;;-3.30;99.90;;;;;;5092796;28;20028;-84
2022/01/25 06:16:31;;;;;;;83.05;53.38;;;-3.30;99.90;;;;;;5092577;28;20039;-84
2022/01/25 06:18:57;;;;;;;104.97;62.55;;;-3.20;99.90;;;;;;5092465;28;20024;-83
2022/01/25 06:21:23;;;;;;;89.47;63.10;;;-3.20;99.90;;;;;;5074538;28;20044;-83
2022/01/25 06:23:50;;;;;;;81.30;56.67;;;-3.20;99.90;;;;;;5091420;28;20039;-83
2022/01/25 06:26:17;;;;;;;81.47;57.88;;;-3.10;99.90;;;;;;5092814;28;20039;-83
2022/01/25 06:28:43;;;;;;;87.72;52.28;;;-3.10;99.90;;;;;;5073303;28;20044;-83
2022/01/25 06:31:10;;;;;;;80.43;53.45;;;-3.10;99.90;;;;;;5094537;28;20028;-82
2022/01/25 06:33:42;;;;;;;78.53;51.28;;;-3.10;99.90;;;;;;5095173;28;20035;-83
2022/01/25 06:36:09;;;;;;;69.50;48.92;;;-3.00;99.90;;;;;;5092526;28;20036;-84
2022/01/25 06:38:35;;;;;;;62.17;45.10;;;-3.00;99.90;;;;;;5068629;28;20479;-82
2022/01/25 06:41:01;;;;;;;66.40;43.88;;;-2.90;99.90;;;;;;5051078;28;20062;-84
2022/01/25 06:43:28;;;;;;;58.58;42.35;;;-2.90;99.90;;;;;;5077317;28;20043;-84
2022/01/25 06:45:59;;;;;;;61.97;44.10;;;-2.90;99.90;;;;;;5095059;28;20040;-84
2022/01/25 06:48:25;;;;;;;64.63;48.67;;;-2.90;99.90;;;;;;5077343;28;20039;-84
2022/01/25 06:50:51;;;;;;;71.15;52.60;;;-2.90;99.90;;;;;;5095421;28;20039;-84
2022/01/25 06:53:18;;;;;;;58.28;45.17;;;-2.80;99.90;;;;;;5016411;28;20165;-84
2022/01/25 06:55:44;;;;;;;60.05;43.13;;;-2.80;99.90;;;;;;5032796;28;20046;-85
2022/01/25 06:58:10;;;;;;;63.28;44.05;;;-2.70;99.90;;;;;;5032935;28;20045;-84
2022/01/25 07:00:37;;;;;;;55.35;41.35;;;-2.70;99.90;;;;;;5013228;28;20454;-85
2022/01/25 07:03:03;;;;;;;60.70;42.85;;;-2.60;99.90;;;;;;4996543;28;20051;-85
2022/01/25 07:05:30;;;;;;;55.05;42.55;;;-2.60;99.90;;;;;;5013716;28;20033;-83
2022/01/25 07:07:56;;;;;;;66.60;43.47;;;-2.50;99.90;;;;;;4996779;28;20049;-84
2022/01/25 07:10:23;;;;;;;74.82;45.75;;;-2.50;99.90;;;;;;5032136;28;20037;-84
2022/01/25 07:12:49;;;;;;;67.53;46.17;;;-2.40;99.90;;;;;;5015515;28;20053;-83
2022/01/25 07:15:16;;;;;;;67.78;45.30;;;-2.50;99.90;;;;;;5032938;28;20045;-84
2022/01/25 07:17:42;;;;;;;72.55;44.33;;;-2.40;99.90;;;;;;5016576;28;20545;-81
2022/01/25 07:20:09;;;;;;;64.75;44.63;;;-2.30;99.90;;;;;;5016368;28;20048;-80
2022/01/25 07:22:37;;;;;;;60.45;44.40;;;-2.20;99.90;;;;;;5032984;28;20037;-84
2022/01/25 07:25:06;;;;;;;60.15;45.90;;;-2.20;99.90;;;;;;5083905;28;20044;-81
2022/01/25 07:27:32;;;;;;;58.13;43.67;;;-2.00;99.90;;;;;;5094973;28;20047;-81
2022/01/25 07:29:59;;;;;;;57.95;42.63;;;-2.00;99.90;;;;;;5076597;28;20492;-81
2022/01/25 07:32:25;;;;;;;67.85;48.95;;;-1.90;99.90;;;;;;5094963;28;20036;-81
2022/01/25 07:34:51;;;;;;;69.18;47.10;;;-1.90;99.90;;;;;;5095832;28;20032;-82
2022/01/25 07:37:18;;;;;;;71.30;49.97;;;-1.80;99.90;;;;;;5094849;28;20024;-82
2022/01/25 07:39:45;;;;;;;73.65;45.28;;;-1.80;99.90;;;;;;5094176;28;20039;-82
2022/01/25 07:42:11;;;;;;;67.20;46.13;;;-1.70;99.90;;;;;;5087567;28;20043;-81
2022/01/25 07:44:45;;;;;;;61.90;42.50;;;-1.60;99.90;;;;;;5075989;28;20457;-82
2022/01/25 07:47:11;;;;;;;65.50;43.88;;;-1.60;99.90;;;;;;5094968;28;20039;-82
2022/01/25 07:49:38;;;;;;;71.70;45.70;;;-1.50;99.90;;;;;;5074531;28;20040;-82
2022/01/25 07:52:05;;;;;;;59.42;44.22;;;-1.40;99.90;;;;;;5094956;28;20040;-82
2022/01/25 07:54:31;;;;;;;65.30;46.08;;;-1.40;99.90;;;;;;5076448;28;20508;-82
2022/01/25 07:56:58;;;;;;;65.28;46.13;;;-1.30;99.90;;;;;;5075883;28;20048;-82
2022/01/25 07:59:24;;;;;;;77.05;49.35;;;-1.20;99.90;;;;;;5094526;28;20032;-82
2022/01/25 08:01:51;;;;;;;83.55;50.55;;;-1.20;99.90;;;;;;5094516;28;20036;-83
2022/01/25 08:04:18;;;;;;;70.10;49.17;;;-1.10;99.90;;;;;;5094532;28;20489;-83
2022/01/25 08:06:44;;;;;;;84.72;50.45;;;-1.10;99.90;;;;;;5076479;28;20420;-84
2022/01/25 08:09:11;;;;;;;78.78;50.13;;;-1.00;99.90;;;;;;5075046;28;20036;-84
2022/01/25 08:11:38;;;;;;;72.03;49.42;;;-0.90;99.90;;;;;;5074938;28;20462;-85
2022/01/25 08:14:17;;;;;;;84.15;53.28;;;-0.80;99.90;;;;;;5057745;28;20060;-82
2022/01/25 08:16:48;;;;;;;80.53;51.33;;;-0.80;99.90;;;;;;5080463;28;20124;-84
2022/01/25 08:19:16;;;;;;;83.13;50.58;;;-0.70;99.90;;;;;;5074913;28;20024;-84
2022/01/25 08:21:43;;;;;;;83.80;55.15;;;-0.70;99.90;;;;;;5074135;28;20048;-83
2022/01/25 08:24:11;;;;;;;96.10;62.75;;;-0.60;99.90;;;;;;5075423;28;20040;-84
2022/01/25 08:26:38;;;;;;;94.47;54.92;;;-0.50;99.90;;;;;;5056274;28;20036;-86
2022/01/25 08:29:05;;;;;;;87.13;53.90;;;-0.40;99.90;;;;;;5074341;28;20028;-84
2022/01/25 08:31:32;;;;;;;85.45;56.10;;;-0.40;99.90;;;;;;5074350;28;20029;-83
2022/01/25 08:33:59;;;;;;;84.38;55.40;;;-0.30;99.90;;;;;;5073666;28;20039;-84
2022/01/25 08:36:27;;;;;;;93.78;56.25;;;-0.20;99.90;;;;;;5074479;28;20043;-84
2022/01/25 08:38:54;;;;;;;92.85;55.03;;;-0.20;99.90;;;;;;5084616;28;20036;-84
2022/01/25 08:41:21;;;;;;;112.63;55.58;;;-0.10;99.90;;;;;;5082291;28;20055;-84
2022/01/25 08:43:47;;;;;;;105.32;56.70;;;-0.10;99.90;;;;;;5095743;28;20143;-83
2022/01/25 08:46:13;;;;;;;93.30;58.90;;;-0.10;99.90;;;;;;5076462;28;20039;-84
2022/01/25 08:48:40;;;;;;;111.75;61.28;;;-0.10;99.90;;;;;;5075579;28;20039;-84
2022/01/25 08:51:07;;;;;;;143.90;66.00;;;0.00;99.90;;;;;;5076627;28;20488;-82
2022/01/25 08:53:33;;;;;;;131.10;65.85;;;0.10;99.90;;;;;;5076066;28;20044;-84
2022/01/25 08:55:59;;;;;;;120.63;67.10;;;0.10;99.90;;;;;;5094356;28;20484;-84
2022/01/25 08:58:26;;;;;;;136.20;68.28;;;0.20;99.90;;;;;;5094648;28;20078;-83
2022/01/25 09:00:53;;;;;;;136.63;70.35;;;0.20;99.90;;;;;;5076620;28;20032;-83
2022/01/25 09:03:19;;;;;;;126.38;68.60;;;0.30;99.90;;;;;;5094689;28;20032;-82
2022/01/25 09:05:45;;;;;;;125.45;69.35;;;0.30;99.90;;;;;;5076467;28;20047;-83
2022/01/25 09:08:19;;;;;;;140.30;71.28;;;0.30;99.90;;;;;;5090189;28;20066;-84
2022/01/25 09:10:46;;;;;;;136.70;71.20;;;0.40;99.90;;;;;;5097515;28;20031;-84
2022/01/25 09:13:12;;;;;;;127.28;71.60;;;0.50;99.90;;;;;;5113804;28;20019;-84
2022/01/25 09:15:38;;;;;;;145.65;70.65;;;0.50;99.90;;;;;;5095623;28;20057;-82
2022/01/25 09:18:04;;;;;;;98.45;55.95;;;0.50;99.90;;;;;;5105766;28;20472;-83
2022/01/25 09:20:31;;;;;;;95.05;55.10;;;0.40;99.90;;;;;;5097833;28;20031;-83
2022/01/25 09:22:57;;;;;;;92.43;54.08;;;0.20;99.90;;;;;;5095546;28;20036;-83
2022/01/25 09:25:23;;;;;;;114.90;56.85;;;0.10;99.90;;;;;;5060762;28;20040;-83
2022/01/25 09:27:50;;;;;;;111.70;57.95;;;0.10;99.90;;;;;;5094924;28;20039;-83
2022/01/25 09:30:17;;;;;;;116.90;57.47;;;0.20;99.90;;;;;;5095923;28;20036;-83
2022/01/25 09:32:43;;;;;;;108.50;60.75;;;0.10;99.90;;;;;;5094949;28;20039;-83
2022/01/25 09:35:09;;;;;;;124.97;60.05;;;0.10;99.90;;;;;;5095441;28;20024;-83
2022/01/25 09:37:36;;;;;;;117.13;61.15;;;0.10;99.90;;;;;;5100498;28;20031;-83
2022/01/25 09:40:03;;;;;;;104.43;58.00;;;0.10;99.90;;;;;;5082225;28;20036;-82
2022/01/25 09:42:30;;;;;;;125.45;62.67;;;0.20;99.90;;;;;;5077068;28;20149;-83
2022/01/25 09:44:58;;;;;;;123.00;63.50;;;0.20;99.90;;;;;;5075273;28;20028;-83
2022/01/25 09:47:25;;;;;;;112.30;60.90;;;0.20;99.90;;;;;;5075343;28;20037;-83
2022/01/25 09:49:51;;;;;;;133.60;64.32;;;0.20;99.90;;;;;;5075226;28;20025;-83
2022/01/25 09:52:19;;;;;;;126.05;64.63;;;0.20;99.90;;;;;;5056995;28;20044;-83
2022/01/25 09:54:54;;;;;;;129.38;63.00;;;0.30;99.90;;;;;;5056149;28;20029;-83
2022/01/25 09:57:21;;;;;;;128.07;64.15;;;0.30;99.90;;;;;;5078044;28;20053;-83
2022/01/25 09:59:48;;;;;;;115.18;66.70;;;0.40;99.90;;;;;;5074073;28;20044;-83
2022/01/25 10:02:59;;;;;;;140.45;65.60;;;0.40;99.90;;;;;;5074373;28;20462;-83
2022/01/25 10:05:34;;;;;;;126.75;65.93;;;0.50;99.90;;;;;;5074384;28;20029;-83
2022/01/25 10:08:09;;;;;;;138.15;64.20;;;0.40;99.90;;;;;;5074362;28;20029;-83
2022/01/25 10:10:43;;;;;;;134.27;68.40;;;0.50;99.90;;;;;;5057047;28;20044;-83
2022/01/25 10:13:43;;;;;;;122.38;64.15;;;0.50;99.90;;;;;;5076644;28;20032;-82
2022/01/25 10:16:12;;;;;;;133.20;67.38;;;0.50;99.90;;;;;;5038093;28;20059;-83
2022/01/25 10:18:56;;;;;;;132.77;64.95;;;0.50;99.90;;;;;;5059973;28;20040;-83
2022/01/25 10:21:29;;;;;;;118.30;64.30;;;0.50;99.90;;;;;;5043699;28;20056;-82
2022/01/25 10:24:01;;;;;;;136.57;66.18;;;0.50;99.90;;;;;;5078105;28;20039;-83
2022/01/25 10:26:39;;;;;;;139.85;67.18;;;0.50;99.90;;;;;;5079167;28;20040;-83
2022/01/25 10:29:15;;;;;;;136.55;68.20;;;0.50;99.90;;;;;;5060365;28;20388;-82
2022/01/25 10:31:44;;;;;;;154.32;71.00;;;0.50;99.90;;;;;;5078732;28;20025;-83
2022/01/25 10:34:13;;;;;;;147.65;66.10;;;0.60;99.90;;;;;;5059697;28;20048;-84
2022/01/25 10:36:44;;;;;;;150.15;68.70;;;0.50;99.90;;;;;;5077801;28;20048;-82
2022/01/25 10:39:11;;;;;;;;;;;0.60;99.90;;;;;;5077718;28;20469;-83
2022/01/25 10:41:39;;;;;;;147.57;65.60;;;0.60;99.90;;;;;;5077114;28;19908;-83
2022/01/25 10:44:07;;;;;;;114.50;66.05;;;0.60;99.90;;;;;;5076993;28;20033;-83
2022/01/25 10:46:34;;;;;;;134.90;67.00;;;0.60;99.90;;;;;;5078489;28;20044;-84
2022/01/25 10:49:07;;;;;;;120.90;65.82;;;0.60;99.90;;;;;;5079931;28;20365;-83
2022/01/25 10:51:46;;;;;;;125.72;69.88;;;0.60;99.90;;;;;;5077146;28;20040;-84
2022/01/25 10:54:16;;;;;;;142.68;71.78;;;0.70;99.90;;;;;;5077655;28;20043;-83
2022/01/25 10:56:48;;;;;;;126.50;65.43;;;0.70;99.90;;;;;;5077668;28;20044;-83
2022/01/25 10:59:18;;;;;;;135.57;65.80;;;0.60;99.90;;;;;;5059843;28;20029;-83
2022/01/25 11:01:54;;;;;;;135.40;69.15;;;0.60;99.90;;;;;;5076959;28;20043;-83
2022/01/25 11:04:29;;;;;;;127.82;67.28;;;0.70;99.90;;;;;;5082278;28;20032;-85
2022/01/25 11:07:01;;;;;;;129.63;67.07;;;0.60;99.90;;;;;;5078018;28;20037;-83
2022/01/25 11:09:35;;;;;;;129.48;68.72;;;0.70;99.90;;;;;;5089351;28;20039;-83
2022/01/25 11:12:05;;;;;;;137.50;71.53;;;0.80;99.90;;;;;;5079602;28;20032;-83
2022/01/25 11:14:50;;;;;;;136.85;70.80;;;0.80;99.90;;;;;;5079139;28;20040;-83
2022/01/25 11:17:18;;;;;;;119.60;64.55;;;0.90;99.90;;;;;;5098953;28;20024;-85
2022/01/25 11:19:44;;;;;;;119.75;64.82;;;0.80;99.90;;;;;;5098468;28;20039;-84
2022/01/25 11:22:12;;;;;;;107.40;63.65;;;0.80;99.90;;;;;;5097215;28;20036;-84
2022/01/25 11:24:40;;;;;;;104.75;63.83;;;0.90;99.90;;;;;;5097504;28;20035;-84
2022/01/25 11:27:07;;;;;;;115.63;64.82;;;0.90;99.90;;;;;;5096467;28;20187;-84
2022/01/25 11:29:36;;;;;;;112.43;63.03;;;0.90;99.90;;;;;;5078097;28;20495;-85
2022/01/25 11:32:08;;;;;;;107.07;60.35;;;1.00;99.90;;;;;;5076796;28;20036;-83
2022/01/25 11:34:37;;;;;;;115.43;60.58;;;0.90;99.90;;;;;;5088346;28;20035;-82
2022/01/25 11:37:07;;;;;;;117.28;60.08;;;0.90;99.90;;;;;;5096407;28;20028;-82
2022/01/25 11:39:38;;;;;;;111.53;59.15;;;1.00;99.90;;;;;;5100976;28;20032;-83
2022/01/25 11:42:08;;;;;;;104.13;63.40;;;1.00;99.90;;;;;;5095270;28;20036;-83
2022/01/25 11:44:45;;;;;;;103.20;59.33;;;1.10;99.90;;;;;;5096498;28;20028;-83
2022/01/25 11:47:13;;;;;;;99.68;59.78;;;1.00;99.90;;;;;;5096378;28;20036;-83
2022/01/25 11:50:14;;;;;;;104.43;60.60;;;1.10;99.90;;;;;;5078074;28;20385;-82
2022/01/25 11:52:53;;;;;;;102.85;56.38;;;1.10;99.90;;;;;;5095283;28;20043;-82
2022/01/25 11:55:25;;;;;;;100.53;59.47;;;1.10;99.90;;;;;;5095972;28;20050;-81
2022/01/25 11:58:00;;;;;;;111.55;61.60;;;1.10;99.90;;;;;;5095247;28;20035;-82
2022/01/25 12:00:47;;;;;;;99.65;58.45;;;1.10;99.90;;;;;;5095426;28;20032;-82
2022/01/25 12:03:28;;;;;;;91.00;55.97;;;1.00;99.90;;;;;;5095592;28;20043;-81
2022/01/25 12:05:59;;;;;;;;;;;0.90;99.90;;;;;;5097485;28;20040;-82
2022/01/25 12:11:28;;;;;;;96.88;55.30;;;1.00;99.90;;;;;;5096777;28;20032;-83
2022/01/25 12:14:24;;;;;;;101.63;57.38;;;1.00;99.90;;;;;;5096271;28;20036;-83
2022/01/25 12:17:02;;;;;;;113.03;56.42;;;1.00;99.90;;;;;;5087234;28;20405;-93
2022/01/25 12:19:43;;;;;;;98.45;58.60;;;1.00;99.90;;;;;;5103525;28;20040;-83
2022/01/25 12:22:33;;;;;;;116.43;57.55;;;1.00;99.90;;;;;;5097923;28;20036;-82
2022/01/25 12:27:53;;;;;;;101.40;55.80;;;1.00;99.90;;;;;;5098414;28;20039;-83
2022/01/25 12:30:25;;;;;;;101.55;57.33;;;1.10;99.90;;;;;;5098832;28;20054;-84
2022/01/25 12:33:01;;;;;;;135.93;61.97;;;1.00;99.90;;;;;;5096509;28;20039;-84
2022/01/25 12:35:40;;;;;;;110.20;64.28;;;1.10;99.90;;;;;;5077713;28;20032;-83
2022/01/25 12:38:19;;;;;;;116.40;60.80;;;1.10;99.90;;;;;;5095385;28;20392;-84
2022/01/25 12:40:57;;;;;;;133.30;64.95;;;1.10;99.90;;;;;;5077836;28;20028;-83
2022/01/25 12:43:25;;;;;;;102.53;60.03;;;1.00;99.90;;;;;;5095239;28;20464;-83
2022/01/25 12:46:12;;;;;;;100.05;59.08;;;1.00;99.90;;;;;;5097787;28;20036;-90
2022/01/25 12:48:46;;;;;;;105.88;59.80;;;1.00;99.90;;;;;;5099286;28;20028;-83
2022/01/25 12:51:18;;;;;;;107.32;59.85;;;1.00;99.90;;;;;;5099069;28;20303;-83
2022/01/25 12:53:47;;;;;;;111.25;62.78;;;1.00;99.90;;;;;;5105531;28;20043;-83
2022/01/25 12:56:22;;;;;;;127.38;65.22;;;1.00;99.90;;;;;;5106640;28;20040;-83
2022/01/25 12:58:53;;;;;;;109.72;62.70;;;0.90;99.90;;;;;;5106695;28;20032;-82
2022/01/25 13:01:21;;;;;;;108.43;56.63;;;0.90;99.90;;;;;;5104482;28;20024;-82
2022/01/25 13:03:59;;;;;;;87.47;53.45;;;0.90;99.90;;;;;;5096696;28;20040;-84
2022/01/25 13:06:28;;;;;;;106.65;58.28;;;1.00;99.90;;;;;;5076418;28;20295;-82
2022/01/25 13:09:03;;;;;;;111.85;57.20;;;1.10;99.90;;;;;;5085667;28;20031;-83
2022/01/25 13:12:08;;;;;;;124.22;58.50;;;1.00;99.90;;;;;;5095208;28;20385;-82
2022/01/25 13:17:17;;;;;;;96.93;56.15;;;1.00;99.90;;;;;;5090065;28;20519;-83
2022/01/25 13:19:58;;;;;;;100.00;55.55;;;1.00;99.90;;;;;;5074360;28;20049;-84
2022/01/25 13:22:33;;;;;;;113.03;57.45;;;1.10;99.90;;;;;;5076275;28;20036;-83
2022/01/25 13:27:53;;;;;;;122.07;64.13;;;1.10;99.90;;;;;;5096480;28;20373;-84
2022/01/25 13:33:14;;;;;;;115.18;61.67;;;1.00;99.90;;;;;;5096132;28;20369;-84
2022/01/25 13:35:47;;;;;;;98.95;57.80;;;1.00;99.90;;;;;;5097112;28;20385;-83
2022/01/25 13:38:25;;;;;;;111.95;58.17;;;1.10;99.90;;;;;;5077642;28;20272;-82
2022/01/25 13:41:01;;;;;;;97.65;53.20;;;1.10;99.90;;;;;;5094989;28;20035;-83
2022/01/25 13:46:10;;;;;;;110.60;58.15;;;1.10;99.90;;;;;;5097297;28;20040;-84
2022/01/25 13:48:37;;;;;;;128.25;62.40;;;1.10;99.90;;;;;;5095879;28;20028;-83
2022/01/25 13:51:07;;;;;;;125.38;62.00;;;1.00;99.90;;;;;;5077455;28;20039;-83
2022/01/25 13:53:34;;;;;;;96.35;59.83;;;1.00;99.90;;;;;;5095674;28;20040;-84
2022/01/25 13:56:01;;;;;;;107.63;58.55;;;1.00;99.90;;;;;;5073140;28;20021;-84
2022/01/25 13:58:33;;;;;;;111.90;58.40;;;1.00;99.90;;;;;;5057211;28;20029;-84
2022/01/25 14:01:04;;;;;;;114.32;58.20;;;1.00;99.90;;;;;;5057123;28;20040;-83
2022/01/25 14:03:38;;;;;;;;;;;1.00;99.90;;;;;;5077995;28;20055;-84
2022/01/25 14:06:27;;;;;;;117.65;59.85;;;1.00;99.90;;;;;;5074962;28;19919;-84
2022/01/25 14:09:05;;;;;;;128.60;69.15;;;1.10;99.90;;;;;;5077241;28;20103;-82
2022/01/25 14:25:34;;;;;;;149.00;71.65;;;1.00;99.90;;;;;;5073236;28;20040;-84
2022/01/25 14:28:03;;;;;;;151.15;79.00;;;1.00;99.90;;;;;;5072686;28;20040;-85
2022/01/25 14:30:32;;;;;;;129.73;73.40;;;1.00;99.90;;;;;;5085261;28;20024;-85
2022/01/25 14:33:06;;;;;;;140.55;76.10;;;0.90;99.90;;;;;;5074766;28;20052;-84
2022/01/25 14:35:33;;;;;;;140.15;75.65;;;0.90;99.90;;;;;;5077124;28;20047;-87
2022/01/25 14:38:00;;;;;;;172.82;98.50;;;1.00;99.90;;;;;;5093589;28;20028;-87
2022/01/25 14:40:27;;;;;;;147.38;82.80;;;1.00;99.90;;;;;;5097154;28;20054;-82
2022/01/25 14:42:55;;;;;;;137.43;74.95;;;1.00;99.90;;;;;;5095142;28;20051;-84
2022/01/25 14:45:24;;;;;;;146.38;74.18;;;1.00;99.90;;;;;;5076449;28;20052;-84
2022/01/25 14:47:54;;;;;;;147.77;78.78;;;1.00;99.90;;;;;;5075627;28;20118;-85
2022/01/25 14:50:31;;;;;;;160.98;79.78;;;1.00;99.90;;;;;;5093701;28;20378;-84